sensor_id;sensor_type;location;lat;lon;timestamp;temperature;humidity
21193;DHT22;10754;51.106;7.164;2023-05-10T00:01:03;17.50;1.00
21193;DHT22;10754;51.106;7.164;2023-05-10T00:03:29;17.60;1.00
21193;DHT22;10754;51.106;7.164;2023-05-10T00:05:54;17.60;1.00
21193;DHT22;10754;51.106;7.164;2023-05-10T00:08:20;17.60;1.00
21193;DHT22;10754;51.106;7.164;2023-05-10T00:10:45;17.60;1.00
21193;DHT22;10754;51.106;7.164;2023-05-10T00:13:11;17.60;1.00
21193;DHT22;10754;51.106;7.164;2023-05-10T00:15:36;17.60;1.00
21193;DHT22;10754;51.106;7.164;2023-05-10T00:18:02;17.60;1.00
21193;DHT22;10754;51.106;7.164;2023-05-10T00:20:27;17.60;1.00
21193;DHT22;10754;51.106;7.164;2023-05-10T00:22:53;17.70;1.00
21193;DHT22;10754;51.106;7.164;2023-05-10T00:25:18;17.70;1.00
21193;DHT22;10754;51.106;7.164;2023-05-10T00:27:44;17.70;1.00
21193;DHT22;10754;51.106;7.164;2023-05-10T00:30:09;17.60;1.00
21193;DHT22;10754;51.106;7.164;2023-05-10T00:32:35;17.70;1.00
21193;DHT22;10754;51.106;7.164;2023-05-10T00:35:00;17.70;1.00
21193;DHT22;10754;51.106;7.164;2023-05-10T00:37:26;17.70;1.00
21193;DHT22;10754;51.106;7.164;2023-05-10T00:39:51;17.60;1.00
21193;DHT22;10754;51.106;7.164;2023-05-10T00:42:17;17.60;1.00
21193;DHT22;10754;51.106;7.164;2023-05-10T00:44:42;17.70;1.00
21193;DHT22;10754;51.106;7.164;2023-05-10T00:47:08;17.60;1.00
21193;DHT22;10754;51.106;7.164;2023-05-10T00:49:34;17.70;1.00
21193;DHT22;10754;51.106;7.164;2023-05-10T00:52:01;17.80;1.00
21193;DHT22;10754;51.106;7.164;2023-05-10T00:54:27;17.70;1.00
21193;DHT22;10754;51.106;7.164;2023-05-10T00:56:52;17.70;1.00
21193;DHT22;10754;51.106;7.164;2023-05-10T00:59:18;17.70;1.00
21193;DHT22;10754;51.106;7.164;2023-05-10T01:01:47;17.70;1.00
21193;DHT22;10754;51.106;7.164;2023-05-10T01:04:13;17.70;1.00
21193;DHT22;10754;51.106;7.164;2023-05-10T01:06:40;17.70;1.00
21193;DHT22;10754;51.106;7.164;2023-05-10T01:09:06;17.60;1.00
21193;DHT22;10754;51.106;7.164;2023-05-10T01:11:33;17.60;1.00
21193;DHT22;10754;51.106;7.164;2023-05-10T01:13:59;17.60;1.00
21193;DHT22;10754;51.106;7.164;2023-05-10T01:16:26;17.60;1.00
21193;DHT22;10754;51.106;7.164;2023-05-10T01:18:52;17.60;1.00
21193;DHT22;10754;51.106;7.164;2023-05-10T01:21:33;17.60;1.00
21193;DHT22;10754;51.106;7.164;2023-05-10T01:24:47;17.70;1.00
21193;DHT22;10754;51.106;7.164;2023-05-10T01:36:18;17.60;1.00
21193;DHT22;10754;51.106;7.164;2023-05-10T01:38:51;17.60;1.00
21193;DHT22;10754;51.106;7.164;2023-05-10T01:44:31;17.70;1.00
21193;DHT22;10754;51.106;7.164;2023-05-10T01:47:26;17.70;1.00
21193;DHT22;10754;51.106;7.164;2023-05-10T01:49:54;17.70;1.00
21193;DHT22;10754;51.106;7.164;2023-05-10T01:52:26;17.70;1.00
21193;DHT22;10754;51.106;7.164;2023-05-10T01:55:00;17.70;1.00
21193;DHT22;10754;51.106;7.164;2023-05-10T01:57:34;17.60;1.00
21193;DHT22;10754;51.106;7.164;2023-05-10T02:00:02;17.70;1.00
21193;DHT22;10754;51.106;7.164;2023-05-10T02:02:35;17.70;1.00
21193;DHT22;10754;51.106;7.164;2023-05-10T02:05:04;17.70;1.00
21193;DHT22;10754;51.106;7.164;2023-05-10T02:07:31;17.70;1.00
21193;DHT22;10754;51.106;7.164;2023-05-10T02:09:58;17.70;1.00
21193;DHT22;10754;51.106;7.164;2023-05-10T02:12:25;17.70;1.00
21193;DHT22;10754;51.106;7.164;2023-05-10T02:14:53;17.60;1.00
21193;DHT22;10754;51.106;7.164;2023-05-10T02:17:19;17.50;1.00
21193;DHT22;10754;51.106;7.164;2023-05-10T02:19:47;17.50;1.00
21193;DHT22;10754;51.106;7.164;2023-05-10T02:22:13;17.50;1.00
21193;DHT22;10754;51.106;7.164;2023-05-10T02:24:41;17.50;1.00
21193;DHT22;10754;51.106;7.164;2023-05-10T02:27:08;17.50;1.00
21193;DHT22;10754;51.106;7.164;2023-05-10T02:29:35;17.50;1.00
21193;DHT22;10754;51.106;7.164;2023-05-10T02:32:02;17.40;1.00
21193;DHT22;10754;51.106;7.164;2023-05-10T02:34:28;17.40;1.00
21193;DHT22;10754;51.106;7.164;2023-05-10T02:36:55;17.50;1.00
21193;DHT22;10754;51.106;7.164;2023-05-10T02:39:22;17.40;1.00
21193;DHT22;10754;51.106;7.164;2023-05-10T02:41:50;17.50;1.00
21193;DHT22;10754;51.106;7.164;2023-05-10T02:44:18;17.40;1.00
21193;DHT22;10754;51.106;7.164;2023-05-10T02:46:45;17.40;1.00
21193;DHT22;10754;51.106;7.164;2023-05-10T02:49:11;17.50;1.00
21193;DHT22;10754;51.106;7.164;2023-05-10T02:52:00;17.50;1.00
21193;DHT22;10754;51.106;7.164;2023-05-10T02:54:30;17.50;1.00
21193;DHT22;10754;51.106;7.164;2023-05-10T02:56:58;17.40;1.00
21193;DHT22;10754;51.106;7.164;2023-05-10T02:59:28;17.40;1.00
21193;DHT22;10754;51.106;7.164;2023-05-10T03:01:53;17.40;1.00
21193;DHT22;10754;51.106;7.164;2023-05-10T03:04:19;17.40;1.00
21193;DHT22;10754;51.106;7.164;2023-05-10T03:06:44;17.40;1.00
21193;DHT22;10754;51.106;7.164;2023-05-10T03:09:11;17.40;1.00
21193;DHT22;10754;51.106;7.164;2023-05-10T03:12:47;17.40;1.00
21193;DHT22;10754;51.106;7.164;2023-05-10T03:15:03;17.50;1.00
21193;DHT22;10754;51.106;7.164;2023-05-10T03:17:42;17.40;1.00
21193;DHT22;10754;51.106;7.164;2023-05-10T03:20:11;17.40;1.00
21193;DHT22;10754;51.106;7.164;2023-05-10T03:22:41;17.40;1.00
21193;DHT22;10754;51.106;7.164;2023-05-10T03:25:10;17.40;1.00
21193;DHT22;10754;51.106;7.164;2023-05-10T03:27:39;17.40;1.00
21193;DHT22;10754;51.106;7.164;2023-05-10T03:30:06;17.40;1.00
21193;DHT22;10754;51.106;7.164;2023-05-10T03:32:33;17.40;1.00
21193;DHT22;10754;51.106;7.164;2023-05-10T03:35:00;17.40;1.00
21193;DHT22;10754;51.106;7.164;2023-05-10T03:37:25;17.40;1.00
21193;DHT22;10754;51.106;7.164;2023-05-10T03:39:50;17.40;1.00
21193;DHT22;10754;51.106;7.164;2023-05-10T03:42:16;17.40;1.00
21193;DHT22;10754;51.106;7.164;2023-05-10T03:44:43;17.40;1.00
21193;DHT22;10754;51.106;7.164;2023-05-10T03:47:08;17.40;1.00
21193;DHT22;10754;51.106;7.164;2023-05-10T03:49:34;17.40;1.00
21193;DHT22;10754;51.106;7.164;2023-05-10T03:51:59;17.40;1.00
21193;DHT22;10754;51.106;7.164;2023-05-10T03:54:25;17.40;1.00
21193;DHT22;10754;51.106;7.164;2023-05-10T03:56:51;17.50;1.00
21193;DHT22;10754;51.106;7.164;2023-05-10T03:59:16;17.40;1.00
21193;DHT22;10754;51.106;7.164;2023-05-10T04:01:42;17.40;1.00
21193;DHT22;10754;51.106;7.164;2023-05-10T04:04:07;17.50;1.00
21193;DHT22;10754;51.106;7.164;2023-05-10T04:06:32;17.40;1.00
21193;DHT22;10754;51.106;7.164;2023-05-10T04:08:58;17.40;1.00
21193;DHT22;10754;51.106;7.164;2023-05-10T04:11:29;17.50;1.00
21193;DHT22;10754;51.106;7.164;2023-05-10T04:13:55;17.50;1.00
21193;DHT22;10754;51.106;7.164;2023-05-10T04:16:20;17.50;1.00
21193;DHT22;10754;51.106;7.164;2023-05-10T04:18:46;17.50;1.00
21193;DHT22;10754;51.106;7.164;2023-05-10T04:21:12;17.40;1.00
21193;DHT22;10754;51.106;7.164;2023-05-10T04:23:38;17.40;1.00
21193;DHT22;10754;51.106;7.164;2023-05-10T04:26:04;17.50;1.00
21193;DHT22;10754;51.106;7.164;2023-05-10T04:28:29;17.50;1.00
21193;DHT22;10754;51.106;7.164;2023-05-10T04:31:06;17.50;1.00
21193;DHT22;10754;51.106;7.164;2023-05-10T04:33:32;17.50;1.00
21193;DHT22;10754;51.106;7.164;2023-05-10T04:35:57;17.50;1.00
21193;DHT22;10754;51.106;7.164;2023-05-10T04:38:23;17.50;1.00
21193;DHT22;10754;51.106;7.164;2023-05-10T04:40:49;17.50;1.00
21193;DHT22;10754;51.106;7.164;2023-05-10T04:43:15;17.50;1.00
21193;DHT22;10754;51.106;7.164;2023-05-10T04:45:40;17.50;1.00
21193;DHT22;10754;51.106;7.164;2023-05-10T04:48:06;17.50;1.00
21193;DHT22;10754;51.106;7.164;2023-05-10T04:50:32;17.50;1.00
21193;DHT22;10754;51.106;7.164;2023-05-10T04:52:58;17.50;1.00
21193;DHT22;10754;51.106;7.164;2023-05-10T04:55:24;17.50;1.00
21193;DHT22;10754;51.106;7.164;2023-05-10T04:57:50;17.50;1.00
21193;DHT22;10754;51.106;7.164;2023-05-10T05:00:15;17.50;1.00
21193;DHT22;10754;51.106;7.164;2023-05-10T05:02:45;17.50;1.00
21193;DHT22;10754;51.106;7.164;2023-05-10T05:05:11;17.50;1.00
21193;DHT22;10754;51.106;7.164;2023-05-10T05:07:36;17.60;1.00
21193;DHT22;10754;51.106;7.164;2023-05-10T05:10:07;17.60;1.00
21193;DHT22;10754;51.106;7.164;2023-05-10T05:12:33;17.60;1.00
21193;DHT22;10754;51.106;7.164;2023-05-10T05:14:58;17.60;1.00
21193;DHT22;10754;51.106;7.164;2023-05-10T05:17:24;17.60;1.00
21193;DHT22;10754;51.106;7.164;2023-05-10T05:19:49;17.60;1.00
21193;DHT22;10754;51.106;7.164;2023-05-10T05:22:15;17.60;1.00
21193;DHT22;10754;51.106;7.164;2023-05-10T05:24:41;17.60;1.00
21193;DHT22;10754;51.106;7.164;2023-05-10T05:27:06;17.60;1.00
21193;DHT22;10754;51.106;7.164;2023-05-10T05:29:33;17.60;1.00
21193;DHT22;10754;51.106;7.164;2023-05-10T05:31:59;17.60;1.00
21193;DHT22;10754;51.106;7.164;2023-05-10T05:34:24;17.60;1.00
21193;DHT22;10754;51.106;7.164;2023-05-10T05:36:50;17.60;1.00
21193;DHT22;10754;51.106;7.164;2023-05-10T05:39:16;17.60;1.00
21193;DHT22;10754;51.106;7.164;2023-05-10T05:41:42;17.60;1.00
21193;DHT22;10754;51.106;7.164;2023-05-10T05:44:07;17.60;1.00
21193;DHT22;10754;51.106;7.164;2023-05-10T05:46:33;17.70;1.00
21193;DHT22;10754;51.106;7.164;2023-05-10T05:48:58;17.70;1.00
21193;DHT22;10754;51.106;7.164;2023-05-10T05:51:24;17.70;1.00
21193;DHT22;10754;51.106;7.164;2023-05-10T05:53:50;17.70;1.00
21193;DHT22;10754;51.106;7.164;2023-05-10T05:56:15;17.70;1.00
21193;DHT22;10754;51.106;7.164;2023-05-10T05:58:42;17.80;1.00
21193;DHT22;10754;51.106;7.164;2023-05-10T06:01:08;17.80;1.00
21193;DHT22;10754;51.106;7.164;2023-05-10T06:03:34;17.80;1.00
21193;DHT22;10754;51.106;7.164;2023-05-10T06:06:00;17.80;1.00
21193;DHT22;10754;51.106;7.164;2023-05-10T06:08:25;17.70;1.00
21193;DHT22;10754;51.106;7.164;2023-05-10T06:10:51;17.70;1.00
21193;DHT22;10754;51.106;7.164;2023-05-10T06:13:16;17.70;1.00
21193;DHT22;10754;51.106;7.164;2023-05-10T06:15:42;17.70;1.00
21193;DHT22;10754;51.106;7.164;2023-05-10T06:18:07;17.70;1.00
21193;DHT22;10754;51.106;7.164;2023-05-10T06:20:32;17.70;1.00
21193;DHT22;10754;51.106;7.164;2023-05-10T06:22:58;17.70;1.00
21193;DHT22;10754;51.106;7.164;2023-05-10T06:25:24;17.70;1.00
21193;DHT22;10754;51.106;7.164;2023-05-10T06:27:49;17.70;1.00
21193;DHT22;10754;51.106;7.164;2023-05-10T06:30:16;17.70;1.00
21193;DHT22;10754;51.106;7.164;2023-05-10T06:32:41;17.70;1.00
21193;DHT22;10754;51.106;7.164;2023-05-10T06:35:09;17.70;1.00
21193;DHT22;10754;51.106;7.164;2023-05-10T06:37:34;17.60;1.00
21193;DHT22;10754;51.106;7.164;2023-05-10T06:40:00;17.60;1.00
21193;DHT22;10754;51.106;7.164;2023-05-10T06:42:26;17.70;1.00
21193;DHT22;10754;51.106;7.164;2023-05-10T06:44:52;17.70;1.00
21193;DHT22;10754;51.106;7.164;2023-05-10T06:47:18;17.50;1.00
21193;DHT22;10754;51.106;7.164;2023-05-10T06:49:43;17.60;1.00
21193;DHT22;10754;51.106;7.164;2023-05-10T06:52:09;17.60;1.00
21193;DHT22;10754;51.106;7.164;2023-05-10T06:54:34;17.60;1.00
21193;DHT22;10754;51.106;7.164;2023-05-10T06:57:00;17.60;1.00
21193;DHT22;10754;51.106;7.164;2023-05-10T06:59:25;17.60;1.00
21193;DHT22;10754;51.106;7.164;2023-05-10T07:01:51;17.50;1.00
21193;DHT22;10754;51.106;7.164;2023-05-10T07:04:16;17.60;1.00
21193;DHT22;10754;51.106;7.164;2023-05-10T07:06:43;17.60;1.00
21193;DHT22;10754;51.106;7.164;2023-05-10T07:09:08;17.60;1.00
21193;DHT22;10754;51.106;7.164;2023-05-10T07:11:34;17.60;1.00
21193;DHT22;10754;51.106;7.164;2023-05-10T07:14:00;17.60;1.00
21193;DHT22;10754;51.106;7.164;2023-05-10T07:16:25;17.60;1.00
21193;DHT22;10754;51.106;7.164;2023-05-10T07:18:51;17.60;1.00
21193;DHT22;10754;51.106;7.164;2023-05-10T07:21:18;17.60;1.00
21193;DHT22;10754;51.106;7.164;2023-05-10T07:23:43;17.70;1.00
21193;DHT22;10754;51.106;7.164;2023-05-10T07:26:09;17.70;1.00
21193;DHT22;10754;51.106;7.164;2023-05-10T07:28:35;17.60;1.00
21193;DHT22;10754;51.106;7.164;2023-05-10T07:31:02;17.60;1.00
21193;DHT22;10754;51.106;7.164;2023-05-10T07:33:28;17.70;1.00
21193;DHT22;10754;51.106;7.164;2023-05-10T07:35:53;17.70;1.00
21193;DHT22;10754;51.106;7.164;2023-05-10T07:38:19;17.70;1.00
21193;DHT22;10754;51.106;7.164;2023-05-10T07:40:44;17.70;1.00
21193;DHT22;10754;51.106;7.164;2023-05-10T07:43:10;17.70;1.00
21193;DHT22;10754;51.106;7.164;2023-05-10T07:45:35;17.70;1.00
21193;DHT22;10754;51.106;7.164;2023-05-10T07:48:01;17.70;1.00
21193;DHT22;10754;51.106;7.164;2023-05-10T07:50:26;17.80;1.00
21193;DHT22;10754;51.106;7.164;2023-05-10T07:52:52;17.80;1.00
21193;DHT22;10754;51.106;7.164;2023-05-10T07:55:18;17.80;1.00
21193;DHT22;10754;51.106;7.164;2023-05-10T07:57:44;17.90;1.00
21193;DHT22;10754;51.106;7.164;2023-05-10T08:00:12;17.80;1.00
21193;DHT22;10754;51.106;7.164;2023-05-10T08:02:38;17.80;1.00
21193;DHT22;10754;51.106;7.164;2023-05-10T08:05:04;17.80;1.00
21193;DHT22;10754;51.106;7.164;2023-05-10T08:07:30;17.70;1.00
21193;DHT22;10754;51.106;7.164;2023-05-10T08:09:56;17.80;1.00
21193;DHT22;10754;51.106;7.164;2023-05-10T08:12:21;17.80;1.00
21193;DHT22;10754;51.106;7.164;2023-05-10T08:14:47;17.80;1.00
21193;DHT22;10754;51.106;7.164;2023-05-10T08:17:12;17.80;1.00
21193;DHT22;10754;51.106;7.164;2023-05-10T08:19:38;17.80;1.00
21193;DHT22;10754;51.106;7.164;2023-05-10T08:22:03;17.90;1.00
21193;DHT22;10754;51.106;7.164;2023-05-10T08:24:29;17.90;1.00
21193;DHT22;10754;51.106;7.164;2023-05-10T08:26:54;17.90;1.00
21193;DHT22;10754;51.106;7.164;2023-05-10T08:29:20;17.90;1.00
21193;DHT22;10754;51.106;7.164;2023-05-10T08:31:45;17.90;1.00
21193;DHT22;10754;51.106;7.164;2023-05-10T08:34:11;17.90;1.00
21193;DHT22;10754;51.106;7.164;2023-05-10T08:36:36;17.90;1.00
21193;DHT22;10754;51.106;7.164;2023-05-10T08:39:02;17.90;1.00
21193;DHT22;10754;51.106;7.164;2023-05-10T08:41:28;17.90;1.00
21193;DHT22;10754;51.106;7.164;2023-05-10T08:43:55;18.00;1.00
21193;DHT22;10754;51.106;7.164;2023-05-10T08:46:22;18.10;1.00
21193;DHT22;10754;51.106;7.164;2023-05-10T08:48:50;18.10;1.00
21193;DHT22;10754;51.106;7.164;2023-05-10T08:51:22;18.10;1.00
21193;DHT22;10754;51.106;7.164;2023-05-10T08:53:49;18.10;1.00
21193;DHT22;10754;51.106;7.164;2023-05-10T08:56:15;18.10;1.00
21193;DHT22;10754;51.106;7.164;2023-05-10T08:58:41;18.00;1.00
21193;DHT22;10754;51.106;7.164;2023-05-10T09:01:07;18.00;1.00
21193;DHT22;10754;51.106;7.164;2023-05-10T09:03:33;18.10;1.00
21193;DHT22;10754;51.106;7.164;2023-05-10T09:05:59;18.20;1.00
21193;DHT22;10754;51.106;7.164;2023-05-10T09:08:25;18.10;1.00
21193;DHT22;10754;51.106;7.164;2023-05-10T09:10:51;18.10;1.00
21193;DHT22;10754;51.106;7.164;2023-05-10T09:13:18;18.10;1.00
21193;DHT22;10754;51.106;7.164;2023-05-10T09:15:45;18.20;1.00
21193;DHT22;10754;51.106;7.164;2023-05-10T09:18:11;18.20;1.00
21193;DHT22;10754;51.106;7.164;2023-05-10T09:20:36;18.20;1.00
21193;DHT22;10754;51.106;7.164;2023-05-10T09:23:02;18.20;1.00
21193;DHT22;10754;51.106;7.164;2023-05-10T09:25:28;18.20;1.00
21193;DHT22;10754;51.106;7.164;2023-05-10T09:27:53;18.20;1.00
21193;DHT22;10754;51.106;7.164;2023-05-10T09:30:26;18.20;1.00
21193;DHT22;10754;51.106;7.164;2023-05-10T09:32:52;18.40;1.00
21193;DHT22;10754;51.106;7.164;2023-05-10T09:35:20;18.40;1.00
21193;DHT22;10754;51.106;7.164;2023-05-10T09:37:48;18.60;1.00
21193;DHT22;10754;51.106;7.164;2023-05-10T09:40:33;18.60;1.00
21193;DHT22;10754;51.106;7.164;2023-05-10T09:43:17;18.60;1.00
21193;DHT22;10754;51.106;7.164;2023-05-10T09:45:42;18.60;1.00
21193;DHT22;10754;51.106;7.164;2023-05-10T09:48:08;18.50;1.00
21193;DHT22;10754;51.106;7.164;2023-05-10T09:50:33;18.60;1.00
21193;DHT22;10754;51.106;7.164;2023-05-10T09:53:01;18.60;1.00
21193;DHT22;10754;51.106;7.164;2023-05-10T09:55:44;18.60;1.00
21193;DHT22;10754;51.106;7.164;2023-05-10T09:58:14;18.70;1.00
21193;DHT22;10754;51.106;7.164;2023-05-10T10:00:44;18.70;1.00
21193;DHT22;10754;51.106;7.164;2023-05-10T10:03:18;18.70;1.00
21193;DHT22;10754;51.106;7.164;2023-05-10T10:05:44;18.80;1.00
21193;DHT22;10754;51.106;7.164;2023-05-10T10:08:12;18.80;1.00
21193;DHT22;10754;51.106;7.164;2023-05-10T10:10:38;18.70;1.00
21193;DHT22;10754;51.106;7.164;2023-05-10T10:13:06;18.60;1.00
21193;DHT22;10754;51.106;7.164;2023-05-10T10:15:33;18.80;1.00
21193;DHT22;10754;51.106;7.164;2023-05-10T10:17:58;18.80;1.00
21193;DHT22;10754;51.106;7.164;2023-05-10T10:20:27;18.80;1.00
21193;DHT22;10754;51.106;7.164;2023-05-10T10:22:53;18.70;1.00
21193;DHT22;10754;51.106;7.164;2023-05-10T10:25:19;18.70;1.00
21193;DHT22;10754;51.106;7.164;2023-05-10T10:30:41;18.70;1.00
21193;DHT22;10754;51.106;7.164;2023-05-10T10:35:52;18.70;1.00
21193;DHT22;10754;51.106;7.164;2023-05-10T10:38:18;18.70;1.00
21193;DHT22;10754;51.106;7.164;2023-05-10T10:40:44;18.70;1.00
21193;DHT22;10754;51.106;7.164;2023-05-10T10:46:17;18.70;1.00
21193;DHT22;10754;51.106;7.164;2023-05-10T10:48:50;18.70;1.00
21193;DHT22;10754;51.106;7.164;2023-05-10T10:51:17;18.60;1.00
21193;DHT22;10754;51.106;7.164;2023-05-10T10:53:43;18.50;1.00
21193;DHT22;10754;51.106;7.164;2023-05-10T10:56:10;18.40;1.00
21193;DHT22;10754;51.106;7.164;2023-05-10T10:58:37;18.50;1.00
21193;DHT22;10754;51.106;7.164;2023-05-10T11:01:14;18.50;1.00
21193;DHT22;10754;51.106;7.164;2023-05-10T11:03:41;18.60;1.00
21193;DHT22;10754;51.106;7.164;2023-05-10T11:06:32;18.60;1.00
21193;DHT22;10754;51.106;7.164;2023-05-10T11:08:59;18.50;1.00
21193;DHT22;10754;51.106;7.164;2023-05-10T11:11:25;18.60;1.00
21193;DHT22;10754;51.106;7.164;2023-05-10T11:13:51;18.60;1.00
21193;DHT22;10754;51.106;7.164;2023-05-10T11:16:18;18.60;1.00
21193;DHT22;10754;51.106;7.164;2023-05-10T11:19:05;18.70;1.00
21193;DHT22;10754;51.106;7.164;2023-05-10T11:21:33;18.80;1.00
21193;DHT22;10754;51.106;7.164;2023-05-10T11:24:00;18.70;1.00
21193;DHT22;10754;51.106;7.164;2023-05-10T11:26:30;18.80;1.00
21193;DHT22;10754;51.106;7.164;2023-05-10T11:28:56;18.80;1.00
21193;DHT22;10754;51.106;7.164;2023-05-10T11:31:23;18.80;1.00
21193;DHT22;10754;51.106;7.164;2023-05-10T11:33:56;18.80;1.00
21193;DHT22;10754;51.106;7.164;2023-05-10T11:36:32;18.80;1.00
21193;DHT22;10754;51.106;7.164;2023-05-10T11:38:58;18.80;1.00
21193;DHT22;10754;51.106;7.164;2023-05-10T11:41:24;18.70;1.00
21193;DHT22;10754;51.106;7.164;2023-05-10T11:43:52;18.80;1.00
21193;DHT22;10754;51.106;7.164;2023-05-10T11:46:19;18.80;1.00
21193;DHT22;10754;51.106;7.164;2023-05-10T11:48:47;18.80;1.00
21193;DHT22;10754;51.106;7.164;2023-05-10T11:51:14;18.90;1.00
21193;DHT22;10754;51.106;7.164;2023-05-10T11:53:40;18.90;1.00
21193;DHT22;10754;51.106;7.164;2023-05-10T11:56:06;18.80;1.00
21193;DHT22;10754;51.106;7.164;2023-05-10T11:58:33;18.80;1.00
21193;DHT22;10754;51.106;7.164;2023-05-10T12:00:59;18.80;1.00
21193;DHT22;10754;51.106;7.164;2023-05-10T12:03:26;18.80;1.00
21193;DHT22;10754;51.106;7.164;2023-05-10T12:05:52;18.90;1.00
21193;DHT22;10754;51.106;7.164;2023-05-10T12:08:21;18.90;1.00
21193;DHT22;10754;51.106;7.164;2023-05-10T12:10:47;19.00;1.00
21193;DHT22;10754;51.106;7.164;2023-05-10T12:13:13;19.10;1.00
21193;DHT22;10754;51.106;7.164;2023-05-10T12:15:40;19.20;1.00
21193;DHT22;10754;51.106;7.164;2023-05-10T12:18:05;19.30;1.00
21193;DHT22;10754;51.106;7.164;2023-05-10T12:20:33;19.50;1.00
21193;DHT22;10754;51.106;7.164;2023-05-10T12:22:58;19.60;1.00
21193;DHT22;10754;51.106;7.164;2023-05-10T12:25:30;19.60;1.00
21193;DHT22;10754;51.106;7.164;2023-05-10T12:27:58;19.70;1.00
21193;DHT22;10754;51.106;7.164;2023-05-10T12:30:27;19.70;1.00
21193;DHT22;10754;51.106;7.164;2023-05-10T12:32:54;19.90;1.00
21193;DHT22;10754;51.106;7.164;2023-05-10T12:35:24;20.20;1.00
21193;DHT22;10754;51.106;7.164;2023-05-10T12:37:52;20.20;1.00
21193;DHT22;10754;51.106;7.164;2023-05-10T12:40:18;20.80;1.00
21193;DHT22;10754;51.106;7.164;2023-05-10T12:42:44;21.90;1.00
21193;DHT22;10754;51.106;7.164;2023-05-10T12:45:11;21.60;1.00
21193;DHT22;10754;51.106;7.164;2023-05-10T12:47:37;21.50;1.00
21193;DHT22;10754;51.106;7.164;2023-05-10T12:50:03;21.20;1.00
21193;DHT22;10754;51.106;7.164;2023-05-10T12:52:30;21.30;1.00
21193;DHT22;10754;51.106;7.164;2023-05-10T12:54:56;21.80;1.00
21193;DHT22;10754;51.106;7.164;2023-05-10T12:57:22;22.10;1.00
21193;DHT22;10754;51.106;7.164;2023-05-10T12:59:48;22.70;1.00
21193;DHT22;10754;51.106;7.164;2023-05-10T13:02:14;22.00;1.00
21193;DHT22;10754;51.106;7.164;2023-05-10T13:04:40;21.60;1.00
21193;DHT22;10754;51.106;7.164;2023-05-10T13:07:07;21.20;1.00
21193;DHT22;10754;51.106;7.164;2023-05-10T13:09:32;20.90;1.00
21193;DHT22;10754;51.106;7.164;2023-05-10T13:11:58;20.90;1.00
21193;DHT22;10754;51.106;7.164;2023-05-10T13:14:24;20.90;1.00
21193;DHT22;10754;51.106;7.164;2023-05-10T13:16:50;20.80;1.00
21193;DHT22;10754;51.106;7.164;2023-05-10T13:19:16;20.70;1.00
21193;DHT22;10754;51.106;7.164;2023-05-10T13:21:42;20.60;1.00
21193;DHT22;10754;51.106;7.164;2023-05-10T13:24:09;20.70;1.00
21193;DHT22;10754;51.106;7.164;2023-05-10T13:26:36;20.60;1.00
21193;DHT22;10754;51.106;7.164;2023-05-10T13:29:02;20.70;1.00
21193;DHT22;10754;51.106;7.164;2023-05-10T13:31:27;20.80;1.00
21193;DHT22;10754;51.106;7.164;2023-05-10T13:33:53;20.80;1.00
21193;DHT22;10754;51.106;7.164;2023-05-10T13:36:18;20.70;1.00
21193;DHT22;10754;51.106;7.164;2023-05-10T13:38:44;20.70;1.00
21193;DHT22;10754;51.106;7.164;2023-05-10T13:41:10;20.70;1.00
21193;DHT22;10754;51.106;7.164;2023-05-10T13:43:35;20.60;1.00
21193;DHT22;10754;51.106;7.164;2023-05-10T13:46:01;20.40;1.00
21193;DHT22;10754;51.106;7.164;2023-05-10T13:48:27;20.40;1.00
21193;DHT22;10754;51.106;7.164;2023-05-10T13:50:52;20.50;1.00
21193;DHT22;10754;51.106;7.164;2023-05-10T13:53:18;20.50;1.00
21193;DHT22;10754;51.106;7.164;2023-05-10T13:55:44;20.70;1.00
21193;DHT22;10754;51.106;7.164;2023-05-10T13:58:09;20.90;1.00
21193;DHT22;10754;51.106;7.164;2023-05-10T14:00:35;21.40;1.00
21193;DHT22;10754;51.106;7.164;2023-05-10T14:03:00;21.20;1.00
21193;DHT22;10754;51.106;7.164;2023-05-10T14:05:26;21.10;1.00
21193;DHT22;10754;51.106;7.164;2023-05-10T14:07:51;21.10;1.00
21193;DHT22;10754;51.106;7.164;2023-05-10T14:10:17;22.20;1.00
21193;DHT22;10754;51.106;7.164;2023-05-10T14:12:42;21.70;1.00
21193;DHT22;10754;51.106;7.164;2023-05-10T14:15:08;21.30;1.00
21193;DHT22;10754;51.106;7.164;2023-05-10T14:17:35;21.20;1.00
21193;DHT22;10754;51.106;7.164;2023-05-10T14:20:01;21.50;1.00
21193;DHT22;10754;51.106;7.164;2023-05-10T14:22:27;21.40;1.00
21193;DHT22;10754;51.106;7.164;2023-05-10T14:24:52;21.30;1.00
21193;DHT22;10754;51.106;7.164;2023-05-10T14:27:18;21.20;1.00
21193;DHT22;10754;51.106;7.164;2023-05-10T14:29:43;21.10;1.00
21193;DHT22;10754;51.106;7.164;2023-05-10T14:32:09;21.10;1.00
21193;DHT22;10754;51.106;7.164;2023-05-10T14:34:34;21.00;1.00
21193;DHT22;10754;51.106;7.164;2023-05-10T14:37:00;20.90;1.00
21193;DHT22;10754;51.106;7.164;2023-05-10T14:39:26;20.90;1.00
21193;DHT22;10754;51.106;7.164;2023-05-10T14:41:54;20.90;1.00
21193;DHT22;10754;51.106;7.164;2023-05-10T14:44:20;20.90;1.00
21193;DHT22;10754;51.106;7.164;2023-05-10T14:46:45;20.80;1.00
21193;DHT22;10754;51.106;7.164;2023-05-10T14:49:11;20.80;1.00
21193;DHT22;10754;51.106;7.164;2023-05-10T14:51:37;20.70;1.00
21193;DHT22;10754;51.106;7.164;2023-05-10T14:54:02;20.70;1.00
21193;DHT22;10754;51.106;7.164;2023-05-10T14:56:28;20.60;1.00
21193;DHT22;10754;51.106;7.164;2023-05-10T14:58:53;20.60;1.00
21193;DHT22;10754;51.106;7.164;2023-05-10T15:01:19;20.50;1.00
21193;DHT22;10754;51.106;7.164;2023-05-10T15:03:44;20.40;1.00
21193;DHT22;10754;51.106;7.164;2023-05-10T15:06:10;20.50;1.00
21193;DHT22;10754;51.106;7.164;2023-05-10T15:08:35;20.50;1.00
21193;DHT22;10754;51.106;7.164;2023-05-10T15:11:01;20.50;1.00
21193;DHT22;10754;51.106;7.164;2023-05-10T15:13:27;20.60;1.00
21193;DHT22;10754;51.106;7.164;2023-05-10T15:15:52;20.50;1.00
21193;DHT22;10754;51.106;7.164;2023-05-10T15:18:18;20.50;1.00
21193;DHT22;10754;51.106;7.164;2023-05-10T15:20:43;20.40;1.00
21193;DHT22;10754;51.106;7.164;2023-05-10T15:23:09;20.40;1.00
21193;DHT22;10754;51.106;7.164;2023-05-10T15:25:34;20.50;1.00
21193;DHT22;10754;51.106;7.164;2023-05-10T15:28:01;20.30;1.00
21193;DHT22;10754;51.106;7.164;2023-05-10T15:30:27;20.30;1.00
21193;DHT22;10754;51.106;7.164;2023-05-10T15:32:53;20.30;1.00
21193;DHT22;10754;51.106;7.164;2023-05-10T15:35:19;20.30;1.00
21193;DHT22;10754;51.106;7.164;2023-05-10T15:37:45;20.10;1.00
21193;DHT22;10754;51.106;7.164;2023-05-10T15:40:11;20.10;1.00
21193;DHT22;10754;51.106;7.164;2023-05-10T15:42:37;20.10;1.00
21193;DHT22;10754;51.106;7.164;2023-05-10T15:45:02;20.10;1.00
21193;DHT22;10754;51.106;7.164;2023-05-10T15:47:29;20.10;1.00
21193;DHT22;10754;51.106;7.164;2023-05-10T15:49:55;20.10;1.00
21193;DHT22;10754;51.106;7.164;2023-05-10T15:52:20;20.10;1.00
21193;DHT22;10754;51.106;7.164;2023-05-10T15:54:48;20.10;1.00
21193;DHT22;10754;51.106;7.164;2023-05-10T15:57:13;20.10;1.00
21193;DHT22;10754;51.106;7.164;2023-05-10T15:59:39;20.10;1.00
21193;DHT22;10754;51.106;7.164;2023-05-10T16:02:06;20.00;1.00
21193;DHT22;10754;51.106;7.164;2023-05-10T16:04:31;19.90;1.00